Time,TemperatureF,DewpointF,PressureIn,WindDirection,WindDirectionDegrees,WindSpeedMPH,WindSpeedGustMPH,Humidity,HourlyPrecipIn,Conditions,Clouds,dailyrainin,SolarRadiationWatts/m^2,SoftwareType,DateUTC
2013-02-12 00:01:00,44.0,42.0,30.43,WSW,256,6.0,12.0,94,-99.99,,,0.00,0.000000,,2013-02-12 08:01:00,
2013-02-12 00:11:00,44.0,42.0,30.43,WSW,256,6.0,12.0,94,-99.99,,,0.00,0.000000,,2013-02-12 08:11:00,
2013-02-12 00:41:00,44.0,43.0,30.44,WSW,257,6.0,10.0,95,-99.99,,,0.00,0.000000,,2013-02-12 08:41:00,
2013-02-12 00:52:00,44.0,43.0,30.44,WSW,257,6.0,10.0,95,-99.99,,,0.00,0.000000,,2013-02-12 08:52:00,
2013-02-12 01:01:00,44.0,43.0,30.44,WSW,257,6.0,10.0,95,-99.99,,,0.00,0.000000,,2013-02-12 09:01:00,
2013-02-12 01:11:00,44.0,43.0,30.44,WSW,257,6.0,10.0,95,-99.99,,,0.00,0.000000,,2013-02-12 09:11:00,
2013-02-12 01:41:00,44.0,43.0,30.44,WSW,257,7.0,11.0,95,-99.99,,,0.00,0.000000,,2013-02-12 09:41:00,
2013-02-12 01:52:00,44.0,43.0,30.44,WSW,257,7.0,11.0,95,-99.99,,,0.00,0.000000,,2013-02-12 09:52:00,
2013-02-12 02:01:00,44.0,43.0,30.44,WSW,257,7.0,11.0,95,-99.99,,,0.00,0.000000,,2013-02-12 10:01:00,
2013-02-12 02:11:00,44.0,43.0,30.44,WSW,257,7.0,11.0,95,-99.99,,,0.00,0.000000,,2013-02-12 10:11:00,
2013-02-12 02:43:00,44.0,43.0,30.44,West,259,6.0,10.0,95,-99.99,,,0.00,0.000000,,2013-02-12 10:43:00,
2013-02-12 02:52:00,44.0,43.0,30.44,West,259,6.0,10.0,95,-99.99,,,0.00,0.000000,,2013-02-12 10:52:00,
2013-02-12 03:01:00,44.0,43.0,30.44,West,259,6.0,10.0,95,-99.99,,,0.00,0.000000,,2013-02-12 11:01:00,
2013-02-12 03:11:00,44.0,43.0,30.44,West,259,6.0,10.0,95,-99.99,,,0.00,0.000000,,2013-02-12 11:11:00,
2013-02-12 03:41:00,44.0,43.0,30.44,WSW,253,7.0,11.0,95,-99.99,,,-99.99,0.000000,,2013-02-12 11:41:00,
2013-02-12 03:52:00,44.0,43.0,30.44,WSW,253,7.0,11.0,95,-99.99,,,-99.99,0.000000,,2013-02-12 11:52:00,
2013-02-12 04:01:00,44.0,43.0,30.44,WSW,253,7.0,11.0,95,-99.99,,,-99.99,0.000000,,2013-02-12 12:01:00,
2013-02-12 04:11:00,44.0,43.0,30.44,WSW,253,7.0,11.0,95,-99.99,,,-99.99,0.000000,,2013-02-12 12:11:00,
2013-02-12 04:42:00,44.0,43.0,30.44,West,265,7.0,11.0,96,-99.99,,,0.00,0.000000,,2013-02-12 12:42:00,
2013-02-12 04:52:00,44.0,43.0,30.44,West,265,7.0,11.0,96,-99.99,,,0.00,0.000000,,2013-02-12 12:52:00,
2013-02-12 05:01:00,44.0,43.0,30.44,West,265,7.0,11.0,96,-99.99,,,0.00,0.000000,,2013-02-12 13:01:00,
2013-02-12 05:11:00,44.0,43.0,30.44,West,265,7.0,11.0,96,-99.99,,,0.00,0.000000,,2013-02-12 13:11:00,
2013-02-12 05:42:00,45.0,43.0,30.44,West,260,7.0,11.0,92,-99.99,,,0.00,0.000000,,2013-02-12 13:42:00,
2013-02-12 05:52:00,45.0,43.0,30.44,West,260,7.0,11.0,92,-99.99,,,0.00,0.000000,,2013-02-12 13:52:00,
2013-02-12 06:01:00,45.0,43.0,30.44,West,260,7.0,11.0,92,-99.99,,,0.00,0.000000,,2013-02-12 14:01:00,
2013-02-12 06:11:00,45.0,43.0,30.44,West,260,7.0,11.0,92,-99.99,,,0.00,0.000000,,2013-02-12 14:11:00,
2013-02-12 06:42:00,45.0,43.0,30.44,WSW,249,5.0,8.0,93,-99.99,,,0.00,0.000000,,2013-02-12 14:42:00,
2013-02-12 06:52:00,45.0,43.0,30.44,WSW,249,5.0,8.0,93,-99.99,,,0.00,0.000000,,2013-02-12 14:52:00,
2013-02-12 07:01:00,45.0,43.0,30.44,WSW,249,5.0,8.0,93,-99.99,,,0.00,0.000000,,2013-02-12 15:01:00,
2013-02-12 07:11:00,45.0,43.0,30.44,WSW,249,5.0,8.0,93,-99.99,,,0.00,0.000000,,2013-02-12 15:11:00,
2013-02-12 07:42:00,45.0,44.0,30.45,West,259,7.0,11.0,96,-99.99,,,0.00,0.460000,,2013-02-12 15:42:00,
2013-02-12 07:52:00,45.0,44.0,30.45,West,259,7.0,11.0,96,-99.99,,,0.00,0.460000,,2013-02-12 15:52:00,
2013-02-12 08:01:00,45.0,44.0,30.45,West,259,7.0,11.0,96,-99.99,,,0.00,0.460000,,2013-02-12 16:01:00,
2013-02-12 08:11:00,45.0,44.0,30.45,West,259,7.0,11.0,96,-99.99,,,0.00,0.460000,,2013-02-12 16:11:00,
2013-02-12 08:31:00,45.0,44.0,30.47,WSW,254,6.0,11.0,95,-99.99,,,0.01,12.090000,,2013-02-12 16:31:00,
2013-02-12 08:41:00,45.0,44.0,30.47,WSW,254,6.0,11.0,95,-99.99,,,0.01,12.090000,,2013-02-12 16:41:00,
2013-02-12 08:52:00,45.0,44.0,30.47,WSW,254,6.0,11.0,95,-99.99,,,0.01,12.090000,,2013-02-12 16:52:00,
2013-02-12 09:01:00,45.0,44.0,30.47,WSW,254,6.0,11.0,95,-99.99,,,0.01,12.090000,,2013-02-12 17:01:00,
2013-02-12 09:11:00,45.0,44.0,30.47,WSW,254,6.0,11.0,95,-99.99,,,0.01,12.090000,,2013-02-12 17:11:00,
2013-02-12 09:42:00,46.0,44.0,30.48,WSW,257,8.0,15.0,94,-99.99,,,0.01,37.310001,,2013-02-12 17:42:00,
2013-02-12 09:52:00,46.0,44.0,30.48,WSW,257,8.0,15.0,94,-99.99,,,0.01,37.310001,,2013-02-12 17:52:00,
2013-02-12 10:01:00,46.0,44.0,30.48,WSW,257,8.0,15.0,94,-99.99,,,0.01,37.310001,,2013-02-12 18:01:00,
2013-02-12 10:11:00,46.0,44.0,30.48,WSW,257,8.0,15.0,94,-99.99,,,0.01,37.310001,,2013-02-12 18:11:00,
2013-02-12 11:41:00,46.0,45.0,30.51,WSW,256,7.0,13.0,96,-99.99,,,0.01,76.709999,,2013-02-12 19:41:00,
2013-02-12 11:52:00,46.0,45.0,30.51,WSW,256,7.0,13.0,96,-99.99,,,0.01,76.709999,,2013-02-12 19:52:00,
2013-02-12 12:01:00,46.0,45.0,30.51,WSW,256,7.0,13.0,96,-99.99,,,0.01,76.709999,,2013-02-12 20:01:00,
2013-02-12 12:11:00,46.0,45.0,30.51,WSW,256,7.0,13.0,96,-99.99,,,0.01,76.709999,,2013-02-12 20:11:00,
2013-02-12 13:41:00,48.0,46.0,30.50,West,271,8.0,14.0,93,-99.99,,,0.01,204.779999,,2013-02-12 21:41:00,
2013-02-12 13:52:00,48.0,46.0,30.50,West,271,8.0,14.0,93,-99.99,,,0.01,204.779999,,2013-02-12 21:52:00,
2013-02-12 14:01:00,48.0,46.0,30.50,West,271,8.0,14.0,93,-99.99,,,0.01,204.779999,,2013-02-12 22:01:00,
2013-02-12 14:12:00,48.0,46.0,30.50,West,271,8.0,14.0,93,-99.99,,,0.01,204.779999,,2013-02-12 22:12:00,
2013-02-12 14:41:00,48.0,46.0,30.48,West,271,8.0,12.0,91,-99.99,,,-99.99,118.080002,,2013-02-12 22:41:00,
2013-02-12 14:52:00,48.0,46.0,30.48,West,271,8.0,12.0,91,-99.99,,,-99.99,118.080002,,2013-02-12 22:52:00,
2013-02-12 15:01:00,48.0,46.0,30.48,West,271,8.0,12.0,91,-99.99,,,-99.99,118.080002,,2013-02-12 23:01:00,
2013-02-12 15:11:00,48.0,46.0,30.48,West,271,8.0,12.0,91,-99.99,,,-99.99,118.080002,,2013-02-12 23:11:00,
2013-02-12 15:41:00,50.0,46.0,30.46,WSW,250,3.0,6.0,86,-99.99,,,0.01,104.019997,,2013-02-12 23:41:00,
2013-02-12 15:52:00,50.0,46.0,30.46,WSW,250,3.0,6.0,86,-99.99,,,0.01,104.019997,,2013-02-12 23:52:00,
2013-02-12 16:02:00,50.0,46.0,30.46,WSW,250,3.0,6.0,86,-99.99,,,0.01,104.019997,,2013-02-13 00:02:00,
2013-02-12 16:11:00,50.0,46.0,30.46,WSW,250,3.0,6.0,86,-99.99,,,0.01,104.019997,,2013-02-13 00:11:00,
2013-02-12 16:42:00,49.0,45.0,30.47,SSE,156,2.0,6.0,87,-99.99,,,0.01,8.370000,,2013-02-13 00:42:00,
2013-02-12 16:52:00,49.0,45.0,30.47,SSE,156,2.0,6.0,87,-99.99,,,0.01,8.370000,,2013-02-13 00:52:00,
2013-02-12 17:01:00,49.0,45.0,30.47,SSE,156,2.0,6.0,87,-99.99,,,0.01,8.370000,,2013-02-13 01:01:00,
2013-02-12 17:11:00,49.0,45.0,30.47,SSE,156,2.0,6.0,87,-99.99,,,0.01,8.370000,,2013-02-13 01:11:00,
2013-02-12 17:42:00,48.0,45.0,30.47,WSW,253,3.0,9.0,90,-99.99,,,0.01,1.860000,,2013-02-13 01:42:00,
2013-02-12 17:52:00,48.0,45.0,30.47,WSW,253,3.0,9.0,90,-99.99,,,0.01,1.860000,,2013-02-13 01:52:00,
2013-02-12 18:01:00,48.0,45.0,30.47,WSW,253,3.0,9.0,90,-99.99,,,0.01,1.860000,,2013-02-13 02:01:00,
2013-02-12 18:11:00,48.0,45.0,30.47,WSW,253,3.0,9.0,90,-99.99,,,0.01,1.860000,,2013-02-13 02:11:00,
2013-02-12 18:41:00,49.0,45.0,30.46,WSW,255,7.0,13.0,87,-99.99,,,0.01,0.000000,,2013-02-13 02:41:00,
2013-02-12 18:52:00,49.0,45.0,30.46,WSW,255,7.0,13.0,87,-99.99,,,0.01,0.000000,,2013-02-13 02:52:00,
2013-02-12 19:01:00,49.0,45.0,30.46,WSW,255,7.0,13.0,87,-99.99,,,0.01,0.000000,,2013-02-13 03:01:00,
2013-02-12 19:11:00,49.0,45.0,30.46,WSW,255,7.0,13.0,87,-99.99,,,0.01,0.000000,,2013-02-13 03:11:00,
2013-02-12 19:41:00,49.0,45.0,30.46,WSW,258,9.0,15.0,87,-99.99,,,0.01,0.000000,,2013-02-13 03:41:00,
2013-02-12 19:52:00,49.0,45.0,30.46,WSW,258,9.0,15.0,87,-99.99,,,0.01,0.000000,,2013-02-13 03:52:00,
2013-02-12 20:01:00,49.0,45.0,30.46,WSW,258,9.0,15.0,87,-99.99,,,0.01,0.000000,,2013-02-13 04:01:00,
2013-02-12 20:11:00,49.0,45.0,30.46,WSW,258,9.0,15.0,87,-99.99,,,0.01,0.000000,,2013-02-13 04:11:00,
2013-02-12 20:41:00,49.0,46.0,30.45,West,270,8.0,14.0,89,-99.99,,,0.01,0.000000,,2013-02-13 04:41:00,
2013-02-12 20:52:00,49.0,46.0,30.45,West,270,8.0,14.0,89,-99.99,,,0.01,0.000000,,2013-02-13 04:52:00,
2013-02-12 21:01:00,49.0,46.0,30.45,West,270,8.0,14.0,89,-99.99,,,0.01,0.000000,,2013-02-13 05:01:00,
2013-02-12 21:11:00,49.0,46.0,30.45,West,270,8.0,14.0,89,-99.99,,,0.01,0.000000,,2013-02-13 05:11:00,
2013-02-12 21:41:00,49.0,46.0,30.45,West,264,9.0,15.0,89,-99.99,,,0.01,0.000000,,2013-02-13 05:41:00,
2013-02-12 21:52:00,49.0,46.0,30.45,West,264,9.0,15.0,89,-99.99,,,0.01,0.000000,,2013-02-13 05:52:00,
2013-02-12 22:02:00,49.0,46.0,30.45,West,264,9.0,15.0,89,-99.99,,,0.01,0.000000,,2013-02-13 06:02:00,
2013-02-12 22:11:00,49.0,46.0,30.45,West,264,9.0,15.0,89,-99.99,,,0.01,0.000000,,2013-02-13 06:11:00,
2013-02-12 22:31:00,48.0,47.0,30.45,West,268,10.0,18.0,94,-99.99,,,0.01,0.000000,,2013-02-13 06:31:00,
2013-02-12 22:42:00,48.0,47.0,30.45,West,268,10.0,18.0,94,-99.99,,,0.01,0.000000,,2013-02-13 06:42:00,
2013-02-12 22:52:00,48.0,47.0,30.45,West,268,10.0,18.0,94,-99.99,,,0.01,0.000000,,2013-02-13 06:52:00,
2013-02-12 23:02:00,48.0,47.0,30.45,West,268,10.0,18.0,94,-99.99,,,0.01,0.000000,,2013-02-13 07:02:00,
2013-02-12 23:11:00,48.0,47.0,30.45,West,268,10.0,18.0,94,-99.99,,,0.01,0.000000,,2013-02-13 07:11:00,
2013-02-12 23:41:00,48.0,46.0,30.47,West,260,9.0,15.0,92,-99.99,,,0.01,0.000000,,2013-02-13 07:41:00,
2013-02-12 23:52:00,48.0,46.0,30.47,West,260,9.0,15.0,92,-99.99,,,0.01,0.000000,,2013-02-13 07:52:00,